Terminal Aerodrome Forecast
Issued by NWS Sioux Falls, SD

Home | Current Version | Previous Version | Graphics & Text | Print | Product List | Glossary Off
Versions: 1 2 3 4 5 6 7 8 9 10 11 12 13 14 15

749
FTUS43 KFSD 151125
TAFHON
TAF
KHON 151125Z 1512/1612 32013KT P6SM FEW250
      TEMPO 1512/1514 BKN020
     FM151400 32014G21KT P6SM FEW250
     FM152300 35009KT P6SM FEW250
     FM160200 VRB04KT P6SM FEW250=

USA.gov is the U.S. government's official web portal to all federal, state and local government web resources and services.